sensor_id;sensor_type;location;lat;lon;timestamp;pressure;altitude;pressure_sealevel;temperature;humidity
44441;BME280;30146;52.268;20.944;2022-08-19T00:00:13;99989.85;;;25.63;52.97
44441;BME280;30146;52.268;20.944;2022-08-19T00:02:43;99990.30;;;25.61;52.66
44441;BME280;30146;52.268;20.944;2022-08-19T00:05:19;99990.64;;;25.59;52.86
44441;BME280;30146;52.268;20.944;2022-08-19T00:07:49;99992.83;;;25.58;52.83
44441;BME280;30146;52.268;20.944;2022-08-19T00:10:18;99987.30;;;25.54;52.96
44441;BME280;30146;52.268;20.944;2022-08-19T00:12:47;99988.46;;;25.55;53.07
44441;BME280;30146;52.268;20.944;2022-08-19T00:15:18;99987.44;;;25.58;53.17
44441;BME280;30146;52.268;20.944;2022-08-19T00:17:48;99987.23;;;25.58;53.14
44441;BME280;30146;52.268;20.944;2022-08-19T00:20:19;99990.79;;;25.57;53.22
44441;BME280;30146;52.268;20.944;2022-08-19T00:22:48;99989.33;;;25.55;53.12
44441;BME280;30146;52.268;20.944;2022-08-19T00:25:17;99987.06;;;25.55;53.33
44441;BME280;30146;52.268;20.944;2022-08-19T00:27:57;99988.04;;;25.54;53.36
44441;BME280;30146;52.268;20.944;2022-08-19T00:30:27;99989.73;;;25.52;53.29
44441;BME280;30146;52.268;20.944;2022-08-19T00:32:55;99993.59;;;25.50;53.24
44441;BME280;30146;52.268;20.944;2022-08-19T00:35:24;99994.38;;;25.47;53.27
44441;BME280;30146;52.268;20.944;2022-08-19T00:37:55;99996.30;;;25.45;53.43
44441;BME280;30146;52.268;20.944;2022-08-19T00:40:24;99994.84;;;25.43;53.52
44441;BME280;30146;52.268;20.944;2022-08-19T00:42:53;99994.55;;;25.40;53.50
44441;BME280;30146;52.268;20.944;2022-08-19T00:45:24;99993.36;;;25.37;53.72
44441;BME280;30146;52.268;20.944;2022-08-19T00:47:54;99995.52;;;25.39;54.00
44441;BME280;30146;52.268;20.944;2022-08-19T00:50:23;99997.29;;;25.41;53.91
44441;BME280;30146;52.268;20.944;2022-08-19T00:52:52;99992.61;;;25.40;53.87
44441;BME280;30146;52.268;20.944;2022-08-19T00:55:23;99991.59;;;25.40;54.04
44441;BME280;30146;52.268;20.944;2022-08-19T00:57:57;99991.18;;;25.38;53.91
44441;BME280;30146;52.268;20.944;2022-08-19T01:00:27;99988.38;;;25.36;53.74
44441;BME280;30146;52.268;20.944;2022-08-19T01:02:56;99989.45;;;25.33;53.96
44441;BME280;30146;52.268;20.944;2022-08-19T01:05:28;99992.87;;;25.32;54.01
44441;BME280;30146;52.268;20.944;2022-08-19T01:07:59;99998.11;;;25.30;53.95
44441;BME280;30146;52.268;20.944;2022-08-19T01:10:32;100007.08;;;25.27;53.94
44441;BME280;30146;52.268;20.944;2022-08-19T01:13:05;100006.10;;;25.24;53.87
44441;BME280;30146;52.268;20.944;2022-08-19T01:15:40;100001.52;;;25.22;53.98
44441;BME280;30146;52.268;20.944;2022-08-19T01:18:11;99999.95;;;25.20;54.00
44441;BME280;30146;52.268;20.944;2022-08-19T01:20:42;100005.19;;;25.17;54.32
44441;BME280;30146;52.268;20.944;2022-08-19T01:23:10;100006.16;;;25.15;54.35
44441;BME280;30146;52.268;20.944;2022-08-19T01:25:44;100005.31;;;25.15;54.40
44441;BME280;30146;52.268;20.944;2022-08-19T01:28:19;100001.90;;;25.12;54.25
44441;BME280;30146;52.268;20.944;2022-08-19T01:31:09;100006.73;;;25.10;54.39
44441;BME280;30146;52.268;20.944;2022-08-19T01:33:56;100004.36;;;25.09;54.55
44441;BME280;30146;52.268;20.944;2022-08-19T01:36:31;100008.33;;;25.08;54.64
44441;BME280;30146;52.268;20.944;2022-08-19T01:39:01;100002.39;;;25.08;54.90
44441;BME280;30146;52.268;20.944;2022-08-19T01:41:30;100004.81;;;25.06;54.74
44441;BME280;30146;52.268;20.944;2022-08-19T01:43:58;100004.31;;;25.03;54.74
44441;BME280;30146;52.268;20.944;2022-08-19T01:46:47;99999.38;;;24.99;54.92
44441;BME280;30146;52.268;20.944;2022-08-19T01:49:17;99996.70;;;24.95;54.74
44441;BME280;30146;52.268;20.944;2022-08-19T01:51:47;99996.69;;;24.90;54.93
44441;BME280;30146;52.268;20.944;2022-08-19T01:54:18;99993.48;;;24.87;54.95
44441;BME280;30146;52.268;20.944;2022-08-19T01:56:57;99990.71;;;24.82;54.93
44441;BME280;30146;52.268;20.944;2022-08-19T01:59:27;99988.29;;;24.76;55.01
44441;BME280;30146;52.268;20.944;2022-08-19T02:01:56;99988.34;;;24.71;55.03
44441;BME280;30146;52.268;20.944;2022-08-19T02:04:24;99989.55;;;24.67;55.17
44441;BME280;30146;52.268;20.944;2022-08-19T02:06:54;99990.87;;;24.63;55.28
44441;BME280;30146;52.268;20.944;2022-08-19T02:09:23;99991.27;;;24.60;55.30
44441;BME280;30146;52.268;20.944;2022-08-19T02:11:51;99988.58;;;24.56;55.45
44441;BME280;30146;52.268;20.944;2022-08-19T02:14:21;99989.50;;;24.53;55.47
44441;BME280;30146;52.268;20.944;2022-08-19T02:16:49;99988.20;;;24.49;55.65
44441;BME280;30146;52.268;20.944;2022-08-19T02:19:18;99986.73;;;24.48;55.75
44441;BME280;30146;52.268;20.944;2022-08-19T02:21:46;99984.02;;;24.46;55.75
44441;BME280;30146;52.268;20.944;2022-08-19T02:24:15;99982.72;;;24.43;55.84
44441;BME280;30146;52.268;20.944;2022-08-19T02:26:43;99985.28;;;24.39;55.80
44441;BME280;30146;52.268;20.944;2022-08-19T02:29:12;99982.07;;;24.35;55.87
44441;BME280;30146;52.268;20.944;2022-08-19T02:31:40;99977.70;;;24.30;55.99
44441;BME280;30146;52.268;20.944;2022-08-19T02:34:09;99976.13;;;24.28;56.07
44441;BME280;30146;52.268;20.944;2022-08-19T02:36:37;99974.20;;;24.23;56.07
44441;BME280;30146;52.268;20.944;2022-08-19T02:39:10;99973.02;;;24.17;56.11
44441;BME280;30146;52.268;20.944;2022-08-19T02:41:38;99974.96;;;24.12;56.21
44441;BME280;30146;52.268;20.944;2022-08-19T02:44:07;99975.36;;;24.07;56.33
44441;BME280;30146;52.268;20.944;2022-08-19T02:46:55;99981.09;;;24.01;56.43
44441;BME280;30146;52.268;20.944;2022-08-19T02:49:23;99986.52;;;23.99;56.40
44441;BME280;30146;52.268;20.944;2022-08-19T02:51:52;99986.55;;;23.97;56.47
44441;BME280;30146;52.268;20.944;2022-08-19T02:54:20;99988.60;;;23.95;56.62
44441;BME280;30146;52.268;20.944;2022-08-19T02:56:49;99990.10;;;23.91;56.56
44441;BME280;30146;52.268;20.944;2022-08-19T02:59:18;99985.93;;;23.88;56.66
44441;BME280;30146;52.268;20.944;2022-08-19T03:01:50;99984.11;;;23.87;56.76
44441;BME280;30146;52.268;20.944;2022-08-19T03:04:19;99977.44;;;23.85;56.76
44441;BME280;30146;52.268;20.944;2022-08-19T03:06:48;99979.71;;;23.85;56.91
44441;BME280;30146;52.268;20.944;2022-08-19T03:09:18;99979.44;;;23.84;56.92
44441;BME280;30146;52.268;20.944;2022-08-19T03:11:47;99982.33;;;23.82;56.95
44441;BME280;30146;52.268;20.944;2022-08-19T03:14:20;99985.48;;;23.79;56.92
44441;BME280;30146;52.268;20.944;2022-08-19T03:16:50;99983.64;;;23.76;57.04
44441;BME280;30146;52.268;20.944;2022-08-19T03:19:20;99981.41;;;23.72;57.05
44441;BME280;30146;52.268;20.944;2022-08-19T03:21:49;99979.16;;;23.70;57.25
44441;BME280;30146;52.268;20.944;2022-08-19T03:24:19;99972.31;;;23.68;57.27
44441;BME280;30146;52.268;20.944;2022-08-19T03:26:50;99972.59;;;23.67;57.35
44441;BME280;30146;52.268;20.944;2022-08-19T03:29:19;99972.00;;;23.65;57.36
44441;BME280;30146;52.268;20.944;2022-08-19T03:31:59;99982.07;;;23.63;57.49
44441;BME280;30146;52.268;20.944;2022-08-19T03:34:31;99986.23;;;23.61;57.45
44441;BME280;30146;52.268;20.944;2022-08-19T03:37:04;99987.80;;;23.61;57.63
44441;BME280;30146;52.268;20.944;2022-08-19T03:39:35;99990.16;;;23.62;57.66
44441;BME280;30146;52.268;20.944;2022-08-19T03:42:04;99988.71;;;23.62;57.76
44441;BME280;30146;52.268;20.944;2022-08-19T03:44:53;99988.48;;;23.63;57.72
44441;BME280;30146;52.268;20.944;2022-08-19T03:47:21;99989.15;;;23.64;57.74
44441;BME280;30146;52.268;20.944;2022-08-19T03:49:50;99993.45;;;23.65;57.76
44441;BME280;30146;52.268;20.944;2022-08-19T03:52:18;99997.65;;;23.67;57.93
44441;BME280;30146;52.268;20.944;2022-08-19T03:54:47;100003.61;;;23.69;57.88
44441;BME280;30146;52.268;20.944;2022-08-19T03:57:15;100004.14;;;23.72;57.81
44441;BME280;30146;52.268;20.944;2022-08-19T03:59:44;100003.72;;;23.76;57.81
44441;BME280;30146;52.268;20.944;2022-08-19T04:02:12;100005.96;;;23.78;57.85
44441;BME280;30146;52.268;20.944;2022-08-19T04:04:42;100006.51;;;23.81;57.74
44441;BME280;30146;52.268;20.944;2022-08-19T04:07:12;100006.62;;;23.84;57.79
44441;BME280;30146;52.268;20.944;2022-08-19T04:09:43;100008.27;;;23.88;57.77
44441;BME280;30146;52.268;20.944;2022-08-19T04:12:12;100005.09;;;23.93;57.85
44441;BME280;30146;52.268;20.944;2022-08-19T04:14:41;100001.40;;;23.99;57.75
44441;BME280;30146;52.268;20.944;2022-08-19T04:17:09;99997.89;;;24.05;57.60
44441;BME280;30146;52.268;20.944;2022-08-19T04:19:40;99998.07;;;24.09;57.66
44441;BME280;30146;52.268;20.944;2022-08-19T04:22:10;99993.95;;;24.18;57.71
44441;BME280;30146;52.268;20.944;2022-08-19T04:24:39;99993.05;;;24.32;57.83
44441;BME280;30146;52.268;20.944;2022-08-19T04:27:08;99988.85;;;24.52;57.89
44441;BME280;30146;52.268;20.944;2022-08-19T04:29:36;99993.38;;;24.72;57.62
44441;BME280;30146;52.268;20.944;2022-08-19T04:32:07;99998.79;;;24.90;57.54
44441;BME280;30146;52.268;20.944;2022-08-19T04:34:37;100000.10;;;25.10;57.38
44441;BME280;30146;52.268;20.944;2022-08-19T04:37:27;100004.84;;;25.31;57.22
44441;BME280;30146;52.268;20.944;2022-08-19T04:40:06;100008.25;;;25.51;56.59
44441;BME280;30146;52.268;20.944;2022-08-19T04:42:53;100010.52;;;25.73;56.63
44441;BME280;30146;52.268;20.944;2022-08-19T04:45:22;100009.97;;;25.94;56.46
44441;BME280;30146;52.268;20.944;2022-08-19T04:47:55;100007.37;;;26.12;55.74
44441;BME280;30146;52.268;20.944;2022-08-19T04:50:44;99996.09;;;26.30;55.61
44441;BME280;30146;52.268;20.944;2022-08-19T04:53:13;99991.40;;;26.47;55.57
44441;BME280;30146;52.268;20.944;2022-08-19T04:55:42;99986.26;;;26.63;55.07
44441;BME280;30146;52.268;20.944;2022-08-19T04:58:11;99990.07;;;26.78;54.85
44441;BME280;30146;52.268;20.944;2022-08-19T05:00:40;99992.68;;;26.93;54.62
44441;BME280;30146;52.268;20.944;2022-08-19T05:03:08;99993.28;;;27.05;54.11
44441;BME280;30146;52.268;20.944;2022-08-19T05:05:40;99992.48;;;27.04;53.61
44441;BME280;30146;52.268;20.944;2022-08-19T05:08:14;99988.80;;;27.00;53.39
44441;BME280;30146;52.268;20.944;2022-08-19T05:10:58;99990.02;;;26.93;53.19
44441;BME280;30146;52.268;20.944;2022-08-19T05:13:27;99994.16;;;26.86;53.13
44441;BME280;30146;52.268;20.944;2022-08-19T05:15:57;99991.81;;;26.78;52.97
44441;BME280;30146;52.268;20.944;2022-08-19T05:18:27;99993.00;;;26.68;53.15
44441;BME280;30146;52.268;20.944;2022-08-19T05:21:16;99992.66;;;26.59;52.96
44441;BME280;30146;52.268;20.944;2022-08-19T05:24:04;99996.58;;;26.52;53.24
44441;BME280;30146;52.268;20.944;2022-08-19T05:26:36;100001.55;;;26.46;53.24
44441;BME280;30146;52.268;20.944;2022-08-19T05:29:05;100009.52;;;26.50;53.37
44441;BME280;30146;52.268;20.944;2022-08-19T05:31:37;100013.20;;;26.63;53.64
44441;BME280;30146;52.268;20.944;2022-08-19T05:34:09;100005.31;;;26.87;54.02
44441;BME280;30146;52.268;20.944;2022-08-19T05:36:49;100006.45;;;27.15;53.79
44441;BME280;30146;52.268;20.944;2022-08-19T05:39:20;100004.21;;;27.44;53.76
44441;BME280;30146;52.268;20.944;2022-08-19T05:41:51;100006.55;;;27.78;53.58
44441;BME280;30146;52.268;20.944;2022-08-19T05:44:20;100017.62;;;28.06;53.03
44441;BME280;30146;52.268;20.944;2022-08-19T05:46:50;100026.63;;;28.38;52.81
44441;BME280;30146;52.268;20.944;2022-08-19T05:49:21;100030.58;;;28.67;52.29
44441;BME280;30146;52.268;20.944;2022-08-19T05:51:50;100029.65;;;28.98;52.00
44441;BME280;30146;52.268;20.944;2022-08-19T05:54:19;100030.23;;;29.32;51.68
44441;BME280;30146;52.268;20.944;2022-08-19T05:56:48;100025.66;;;29.66;51.13
44441;BME280;30146;52.268;20.944;2022-08-19T05:59:18;100024.06;;;29.96;50.49
44441;BME280;30146;52.268;20.944;2022-08-19T06:01:54;100020.36;;;30.23;49.84
44441;BME280;30146;52.268;20.944;2022-08-19T06:04:23;100013.38;;;30.45;49.34
44441;BME280;30146;52.268;20.944;2022-08-19T06:06:54;100013.44;;;30.65;48.74
44441;BME280;30146;52.268;20.944;2022-08-19T06:09:23;100011.02;;;30.90;48.41
44441;BME280;30146;52.268;20.944;2022-08-19T06:11:54;99999.92;;;31.14;48.05
44441;BME280;30146;52.268;20.944;2022-08-19T06:14:25;99994.02;;;31.43;47.82
44441;BME280;30146;52.268;20.944;2022-08-19T06:16:55;99993.32;;;31.63;46.70
44441;BME280;30146;52.268;20.944;2022-08-19T06:19:24;99995.80;;;31.78;46.34
44441;BME280;30146;52.268;20.944;2022-08-19T06:21:53;100009.30;;;31.98;46.26
44441;BME280;30146;52.268;20.944;2022-08-19T06:24:23;100013.35;;;32.22;45.86
44441;BME280;30146;52.268;20.944;2022-08-19T06:26:53;100021.87;;;32.43;45.47
44441;BME280;30146;52.268;20.944;2022-08-19T06:29:29;100021.79;;;32.61;44.86
44441;BME280;30146;52.268;20.944;2022-08-19T06:32:00;100016.13;;;32.82;44.69
44441;BME280;30146;52.268;20.944;2022-08-19T06:34:31;100013.33;;;33.01;44.50
44441;BME280;30146;52.268;20.944;2022-08-19T06:37:04;100022.41;;;33.16;44.30
44441;BME280;30146;52.268;20.944;2022-08-19T06:39:37;100024.71;;;33.21;43.83
44441;BME280;30146;52.268;20.944;2022-08-19T06:42:07;100027.68;;;33.32;43.61
44441;BME280;30146;52.268;20.944;2022-08-19T06:44:40;100022.56;;;33.53;43.63
44441;BME280;30146;52.268;20.944;2022-08-19T06:47:18;100025.23;;;33.75;43.14
44441;BME280;30146;52.268;20.944;2022-08-19T06:49:56;100023.24;;;33.94;42.93
44441;BME280;30146;52.268;20.944;2022-08-19T06:52:31;100023.83;;;34.22;42.77
44441;BME280;30146;52.268;20.944;2022-08-19T06:55:02;100032.85;;;34.46;41.80
44441;BME280;30146;52.268;20.944;2022-08-19T06:57:34;100024.02;;;34.51;41.21
44441;BME280;30146;52.268;20.944;2022-08-19T07:00:04;100016.52;;;34.65;41.28
44441;BME280;30146;52.268;20.944;2022-08-19T07:02:40;100009.33;;;34.68;40.80
44441;BME280;30146;52.268;20.944;2022-08-19T07:05:11;100017.63;;;34.65;40.50
44441;BME280;30146;52.268;20.944;2022-08-19T07:07:40;100015.57;;;34.75;40.81
44441;BME280;30146;52.268;20.944;2022-08-19T07:10:15;100015.80;;;34.73;40.32
44441;BME280;30146;52.268;20.944;2022-08-19T07:12:44;100024.62;;;34.40;39.75
44441;BME280;30146;52.268;20.944;2022-08-19T07:15:13;100029.27;;;34.02;39.71
44441;BME280;30146;52.268;20.944;2022-08-19T07:17:43;100038.20;;;33.57;39.75
44441;BME280;30146;52.268;20.944;2022-08-19T07:20:15;100035.65;;;33.18;40.01
44441;BME280;30146;52.268;20.944;2022-08-19T07:22:45;100033.73;;;33.26;41.05
44441;BME280;30146;52.268;20.944;2022-08-19T07:25:15;100038.96;;;33.46;40.97
44441;BME280;30146;52.268;20.944;2022-08-19T07:27:45;100031.55;;;33.50;40.82
44441;BME280;30146;52.268;20.944;2022-08-19T07:30:21;100025.08;;;33.61;40.89
44441;BME280;30146;52.268;20.944;2022-08-19T07:32:55;100015.69;;;33.70;40.74
44441;BME280;30146;52.268;20.944;2022-08-19T07:35:24;100012.38;;;33.73;40.49
44441;BME280;30146;52.268;20.944;2022-08-19T07:37:53;100008.51;;;33.78;40.75
44441;BME280;30146;52.268;20.944;2022-08-19T07:40:23;100003.96;;;33.83;40.98
44441;BME280;30146;52.268;20.944;2022-08-19T07:42:52;100003.75;;;33.89;41.01
44441;BME280;30146;52.268;20.944;2022-08-19T07:45:20;100008.02;;;33.97;41.19
44441;BME280;30146;52.268;20.944;2022-08-19T07:47:49;100012.39;;;34.01;40.95
44441;BME280;30146;52.268;20.944;2022-08-19T07:50:20;100019.17;;;33.91;40.48
44441;BME280;30146;52.268;20.944;2022-08-19T07:52:50;100025.86;;;33.73;40.21
44441;BME280;30146;52.268;20.944;2022-08-19T07:55:25;100023.46;;;33.54;40.41
44441;BME280;30146;52.268;20.944;2022-08-19T07:58:13;100018.44;;;33.37;40.63
44441;BME280;30146;52.268;20.944;2022-08-19T08:00:45;100018.83;;;33.18;40.83
44441;BME280;30146;52.268;20.944;2022-08-19T08:03:15;100019.70;;;32.98;41.00
44441;BME280;30146;52.268;20.944;2022-08-19T08:05:44;100012.85;;;32.74;41.01
44441;BME280;30146;52.268;20.944;2022-08-19T08:08:31;100011.52;;;32.44;41.05
44441;BME280;30146;52.268;20.944;2022-08-19T08:11:20;100013.56;;;32.18;41.33
44441;BME280;30146;52.268;20.944;2022-08-19T08:13:51;100006.44;;;31.99;41.78
44441;BME280;30146;52.268;20.944;2022-08-19T08:16:34;100010.23;;;31.86;42.24
44441;BME280;30146;52.268;20.944;2022-08-19T08:19:15;100010.69;;;31.73;42.32
44441;BME280;30146;52.268;20.944;2022-08-19T08:21:54;100009.20;;;31.74;42.82
44441;BME280;30146;52.268;20.944;2022-08-19T08:24:23;100019.41;;;31.79;43.24
44441;BME280;30146;52.268;20.944;2022-08-19T08:26:57;100015.94;;;31.86;43.04
44441;BME280;30146;52.268;20.944;2022-08-19T08:29:29;100019.72;;;31.96;43.40
44441;BME280;30146;52.268;20.944;2022-08-19T08:32:03;100020.09;;;32.10;43.38
44441;BME280;30146;52.268;20.944;2022-08-19T08:34:43;100018.51;;;32.17;43.04
44441;BME280;30146;52.268;20.944;2022-08-19T08:37:14;100018.18;;;32.21;43.07
44441;BME280;30146;52.268;20.944;2022-08-19T08:39:43;100026.77;;;32.26;42.98
44441;BME280;30146;52.268;20.944;2022-08-19T08:42:16;100021.86;;;32.24;42.65
44441;BME280;30146;52.268;20.944;2022-08-19T08:44:53;100019.30;;;32.21;42.57
44441;BME280;30146;52.268;20.944;2022-08-19T08:47:34;100018.50;;;32.18;42.23
44441;BME280;30146;52.268;20.944;2022-08-19T08:50:13;100015.39;;;32.16;42.20
44441;BME280;30146;52.268;20.944;2022-08-19T08:52:46;100016.04;;;32.13;42.49
44441;BME280;30146;52.268;20.944;2022-08-19T08:55:18;100019.88;;;32.12;42.72
44441;BME280;30146;52.268;20.944;2022-08-19T08:57:55;100025.49;;;32.13;42.80
44441;BME280;30146;52.268;20.944;2022-08-19T09:00:29;100035.61;;;32.14;42.83
44441;BME280;30146;52.268;20.944;2022-08-19T09:02:59;100037.66;;;32.13;42.49
44441;BME280;30146;52.268;20.944;2022-08-19T09:05:40;100041.93;;;32.09;42.48
44441;BME280;30146;52.268;20.944;2022-08-19T09:08:25;100033.00;;;32.07;42.61
44441;BME280;30146;52.268;20.944;2022-08-19T09:11:00;100034.88;;;32.04;42.26
44441;BME280;30146;52.268;20.944;2022-08-19T09:13:38;100039.98;;;31.97;42.60
44441;BME280;30146;52.268;20.944;2022-08-19T09:16:14;100037.20;;;31.98;42.79
44441;BME280;30146;52.268;20.944;2022-08-19T09:18:44;100037.59;;;32.03;42.93
44441;BME280;30146;52.268;20.944;2022-08-19T09:21:15;100032.70;;;32.08;43.29
44441;BME280;30146;52.268;20.944;2022-08-19T09:23:44;100035.00;;;32.10;42.99
44441;BME280;30146;52.268;20.944;2022-08-19T09:26:20;100034.30;;;32.06;42.89
44441;BME280;30146;52.268;20.944;2022-08-19T09:28:52;100044.27;;;32.07;43.03
44441;BME280;30146;52.268;20.944;2022-08-19T09:31:27;100034.61;;;32.10;42.80
44441;BME280;30146;52.268;20.944;2022-08-19T09:33:56;100036.13;;;32.13;42.64
44441;BME280;30146;52.268;20.944;2022-08-19T09:36:27;100033.72;;;32.12;42.17
44441;BME280;30146;52.268;20.944;2022-08-19T09:39:03;100037.13;;;32.15;42.18
44441;BME280;30146;52.268;20.944;2022-08-19T09:41:43;100046.42;;;32.17;41.87
44441;BME280;30146;52.268;20.944;2022-08-19T09:44:16;100046.73;;;32.21;41.68
44441;BME280;30146;52.268;20.944;2022-08-19T09:46:46;100056.45;;;32.24;41.69
44441;BME280;30146;52.268;20.944;2022-08-19T09:49:15;100044.23;;;32.25;41.50
44441;BME280;30146;52.268;20.944;2022-08-19T09:51:46;100051.98;;;32.30;41.62
44441;BME280;30146;52.268;20.944;2022-08-19T09:54:18;100049.35;;;32.39;41.51
44441;BME280;30146;52.268;20.944;2022-08-19T09:56:54;100047.83;;;32.44;41.32
44441;BME280;30146;52.268;20.944;2022-08-19T10:02:35;100046.14;;;32.58;41.11
44441;BME280;30146;52.268;20.944;2022-08-19T10:05:04;100036.16;;;32.66;41.04
44441;BME280;30146;52.268;20.944;2022-08-19T10:07:54;100037.43;;;32.76;41.04
44441;BME280;30146;52.268;20.944;2022-08-19T10:10:24;100036.57;;;32.83;41.00
44441;BME280;30146;52.268;20.944;2022-08-19T10:12:54;100029.00;;;32.88;40.74
44441;BME280;30146;52.268;20.944;2022-08-19T10:15:22;100035.40;;;32.89;40.68
44441;BME280;30146;52.268;20.944;2022-08-19T10:17:57;100029.75;;;32.84;40.69
44441;BME280;30146;52.268;20.944;2022-08-19T10:20:28;100023.86;;;32.83;40.81
44441;BME280;30146;52.268;20.944;2022-08-19T10:22:57;100021.33;;;32.83;40.79
44441;BME280;30146;52.268;20.944;2022-08-19T10:25:27;100018.88;;;32.81;40.62
44441;BME280;30146;52.268;20.944;2022-08-19T10:27:57;100022.45;;;32.78;40.58
44441;BME280;30146;52.268;20.944;2022-08-19T10:30:25;100025.41;;;32.73;40.47
44441;BME280;30146;52.268;20.944;2022-08-19T10:32:53;100013.70;;;32.72;40.38
44441;BME280;30146;52.268;20.944;2022-08-19T10:35:22;100032.82;;;32.69;40.02
44441;BME280;30146;52.268;20.944;2022-08-19T10:37:54;100019.62;;;32.63;40.19
44441;BME280;30146;52.268;20.944;2022-08-19T10:40:29;100016.65;;;32.64;40.42
44441;BME280;30146;52.268;20.944;2022-08-19T10:42:58;100017.91;;;32.64;40.20
44441;BME280;30146;52.268;20.944;2022-08-19T10:45:26;100014.61;;;32.67;40.30
44441;BME280;30146;52.268;20.944;2022-08-19T10:47:56;100021.14;;;32.70;40.01
44441;BME280;30146;52.268;20.944;2022-08-19T10:50:25;100017.15;;;32.71;40.10
44441;BME280;30146;52.268;20.944;2022-08-19T10:53:13;100023.35;;;32.74;39.85
44441;BME280;30146;52.268;20.944;2022-08-19T10:55:44;100023.35;;;32.71;39.62
44441;BME280;30146;52.268;20.944;2022-08-19T10:58:31;100013.37;;;32.65;39.55
44441;BME280;30146;52.268;20.944;2022-08-19T11:01:00;100016.27;;;32.63;39.82
44441;BME280;30146;52.268;20.944;2022-08-19T11:03:28;100011.45;;;32.60;39.71
44441;BME280;30146;52.268;20.944;2022-08-19T11:06:02;100005.04;;;32.57;39.69
44441;BME280;30146;52.268;20.944;2022-08-19T11:08:32;100002.06;;;32.56;39.87
44441;BME280;30146;52.268;20.944;2022-08-19T11:11:03;100009.66;;;32.57;39.66
44441;BME280;30146;52.268;20.944;2022-08-19T11:13:34;100002.64;;;32.53;39.27
44441;BME280;30146;52.268;20.944;2022-08-19T11:16:07;99989.82;;;32.47;39.24
44441;BME280;30146;52.268;20.944;2022-08-19T11:18:38;99990.29;;;32.44;39.39
44441;BME280;30146;52.268;20.944;2022-08-19T11:21:09;99979.44;;;32.43;39.52
44441;BME280;30146;52.268;20.944;2022-08-19T11:23:38;99973.08;;;32.45;39.78
44441;BME280;30146;52.268;20.944;2022-08-19T11:26:06;99983.45;;;32.51;39.65
44441;BME280;30146;52.268;20.944;2022-08-19T11:28:35;99976.15;;;32.52;39.56
44441;BME280;30146;52.268;20.944;2022-08-19T11:31:04;99978.11;;;32.55;39.64
44441;BME280;30146;52.268;20.944;2022-08-19T11:33:32;99973.40;;;32.55;39.17
44441;BME280;30146;52.268;20.944;2022-08-19T11:36:01;99980.66;;;32.55;39.16
44441;BME280;30146;52.268;20.944;2022-08-19T11:38:30;99978.02;;;32.53;39.26
44441;BME280;30146;52.268;20.944;2022-08-19T11:41:00;99974.26;;;32.50;39.01
44441;BME280;30146;52.268;20.944;2022-08-19T11:43:29;99967.50;;;32.47;39.11
44441;BME280;30146;52.268;20.944;2022-08-19T11:46:06;99964.53;;;32.50;39.44
44441;BME280;30146;52.268;20.944;2022-08-19T11:48:35;99962.15;;;32.53;39.44
44441;BME280;30146;52.268;20.944;2022-08-19T11:51:07;99957.05;;;32.54;39.43
44441;BME280;30146;52.268;20.944;2022-08-19T11:53:37;99954.95;;;32.55;39.53
44441;BME280;30146;52.268;20.944;2022-08-19T11:56:07;99955.38;;;32.60;39.40
44441;BME280;30146;52.268;20.944;2022-08-19T11:58:36;99948.41;;;32.62;39.53
44441;BME280;30146;52.268;20.944;2022-08-19T12:01:07;99947.45;;;32.66;39.42
44441;BME280;30146;52.268;20.944;2022-08-19T12:03:36;99938.14;;;32.67;39.40
44441;BME280;30146;52.268;20.944;2022-08-19T12:06:08;99935.06;;;32.66;39.02
44441;BME280;30146;52.268;20.944;2022-08-19T12:08:37;99935.70;;;32.67;39.10
44441;BME280;30146;52.268;20.944;2022-08-19T12:11:06;99930.69;;;32.66;39.03
44441;BME280;30146;52.268;20.944;2022-08-19T12:13:36;99930.98;;;32.65;39.12
44441;BME280;30146;52.268;20.944;2022-08-19T12:16:09;99931.91;;;32.66;39.10
44441;BME280;30146;52.268;20.944;2022-08-19T12:18:38;99936.87;;;32.66;39.01
44441;BME280;30146;52.268;20.944;2022-08-19T12:21:09;99939.09;;;32.62;38.75
44441;BME280;30146;52.268;20.944;2022-08-19T12:23:38;99927.95;;;32.53;38.53
44441;BME280;30146;52.268;20.944;2022-08-19T12:26:08;99929.88;;;32.48;38.72
44441;BME280;30146;52.268;20.944;2022-08-19T12:28:37;99925.38;;;32.44;38.72
44441;BME280;30146;52.268;20.944;2022-08-19T12:31:06;99920.03;;;32.41;38.67
44441;BME280;30146;52.268;20.944;2022-08-19T12:33:35;99916.55;;;32.42;38.79
44441;BME280;30146;52.268;20.944;2022-08-19T12:36:06;99916.05;;;32.44;38.96
44441;BME280;30146;52.268;20.944;2022-08-19T12:38:36;99912.40;;;32.45;38.92
44441;BME280;30146;52.268;20.944;2022-08-19T12:41:05;99915.69;;;32.44;39.22
44441;BME280;30146;52.268;20.944;2022-08-19T12:43:35;99907.02;;;32.42;38.94
44441;BME280;30146;52.268;20.944;2022-08-19T12:46:04;99907.42;;;32.40;38.88
44441;BME280;30146;52.268;20.944;2022-08-19T12:48:34;99900.50;;;32.37;38.60
44441;BME280;30146;52.268;20.944;2022-08-19T12:51:07;99899.17;;;32.36;38.67
44441;BME280;30146;52.268;20.944;2022-08-19T12:53:36;99895.60;;;32.37;38.62
44441;BME280;30146;52.268;20.944;2022-08-19T12:56:07;99890.22;;;32.39;38.78
44441;BME280;30146;52.268;20.944;2022-08-19T12:58:40;99907.59;;;32.42;38.63
44441;BME280;30146;52.268;20.944;2022-08-19T13:01:17;99890.65;;;32.40;38.59
44441;BME280;30146;52.268;20.944;2022-08-19T13:03:50;99892.23;;;32.38;38.47
44441;BME280;30146;52.268;20.944;2022-08-19T13:06:20;99890.39;;;32.36;38.28
44441;BME280;30146;52.268;20.944;2022-08-19T13:08:49;99897.52;;;32.33;38.31
44441;BME280;30146;52.268;20.944;2022-08-19T13:11:20;99908.13;;;32.30;38.32